createdAt,value
2022-09-12T00:04:40.800Z,11.27
2022-09-12T00:09:42.292Z,11.20
2022-09-12T00:14:43.705Z,11.24
2022-09-12T00:19:45.114Z,11.13
2022-09-12T00:24:46.572Z,11.05
2022-09-12T00:29:48.026Z,10.95
2022-09-12T00:34:49.529Z,10.94
2022-09-12T00:39:51.070Z,10.82
2022-09-12T00:44:53.211Z,10.73
2022-09-12T00:50:13.688Z,10.64
2022-09-12T00:55:51.468Z,10.62
2022-09-12T01:00:53.148Z,10.50
2022-09-12T01:06:00.939Z,10.49
2022-09-12T01:11:02.460Z,10.46
2022-09-12T01:16:05.938Z,10.42
2022-09-12T01:21:40.218Z,10.40
2022-09-12T01:27:06.418Z,10.37
2022-09-12T01:32:35.617Z,10.28
2022-09-12T01:37:54.608Z,10.26
2022-09-12T01:43:08.546Z,10.26
2022-09-12T01:48:20.387Z,10.20
2022-09-12T01:53:34.667Z,10.14
2022-09-12T01:58:50.779Z,10.12
2022-09-12T02:04:10.330Z,10.05
2022-09-12T02:09:29.792Z,9.96
2022-09-12T02:14:37.430Z,9.96
2022-09-12T02:20:05.795Z,9.88
2022-09-12T02:25:11.470Z,9.83
2022-09-12T02:30:16.444Z,9.82
2022-09-12T02:35:23.370Z,9.85
2022-09-12T02:40:25.551Z,9.91
2022-09-12T02:45:27.555Z,9.99
2022-09-12T02:50:29.832Z,10.02
2022-09-12T02:55:33.318Z,10.10
2022-09-12T03:00:41.783Z,10.11
2022-09-12T03:05:59.360Z,10.16
2022-09-12T03:11:38.330Z,10.08
2022-09-12T03:17:00.083Z,9.97
2022-09-12T03:22:12.400Z,9.87
2022-09-12T03:27:32.563Z,9.89
2022-09-12T03:33:00.094Z,9.89
2022-09-12T03:38:01.545Z,9.85
2022-09-12T03:43:07.954Z,9.87
2022-09-12T03:48:09.412Z,9.82
2022-09-12T03:53:14.092Z,9.83
2022-09-12T03:58:18.400Z,9.83
2022-09-12T04:03:19.981Z,9.80
2022-09-12T04:08:21.420Z,9.77
2022-09-12T04:13:22.872Z,9.73
2022-09-12T04:18:24.324Z,9.63
2022-09-12T04:23:25.716Z,9.58
2022-09-12T04:28:29.035Z,9.44
2022-09-12T04:33:30.603Z,9.37
2022-09-12T04:38:32.785Z,9.41
2022-09-12T04:43:34.673Z,9.40
2022-09-12T04:48:36.745Z,9.36
2022-09-12T04:53:38.508Z,9.40
2022-09-12T04:58:39.982Z,9.40
2022-09-12T05:03:45.322Z,9.42
2022-09-12T05:08:47.465Z,9.41
2022-09-12T05:13:49.559Z,9.45
2022-09-12T05:18:51.710Z,9.47
2022-09-12T05:23:55.041Z,9.56
2022-09-12T05:28:56.512Z,9.62
2022-09-12T05:33:58.076Z,9.69
2022-09-12T05:39:00.573Z,9.88
2022-09-12T05:44:05.361Z,10.04
2022-09-12T05:49:09.752Z,10.18
2022-09-12T05:54:14.100Z,10.29
2022-09-12T05:59:20.712Z,10.52
2022-09-12T06:04:23.676Z,10.66
2022-09-12T06:09:25.643Z,10.81
2022-09-12T06:14:27.036Z,11.00
2022-09-12T06:19:28.659Z,11.36
2022-09-12T06:24:30.059Z,11.45
2022-09-12T06:29:32.590Z,11.61
2022-09-12T06:34:33.992Z,11.74
2022-09-12T06:39:36.555Z,12.04
2022-09-12T06:44:37.979Z,12.28
2022-09-12T06:49:39.430Z,12.43
2022-09-12T06:54:40.828Z,12.62
2022-09-12T06:59:42.394Z,12.77
2022-09-12T07:04:43.796Z,12.93
2022-09-12T07:09:45.189Z,13.16
2022-09-12T07:14:46.692Z,13.45
2022-09-12T07:19:48.173Z,13.62
2022-09-12T07:24:50.391Z,13.79
2022-09-12T07:29:52.132Z,14.01
2022-09-12T07:34:53.736Z,14.07
2022-09-12T07:39:55.738Z,14.15
2022-09-12T07:44:57.168Z,14.47
2022-09-12T07:49:59.057Z,14.81
2022-09-12T07:55:00.635Z,15.26
2022-09-12T08:00:03.525Z,15.57
2022-09-12T08:05:05.446Z,15.72
2022-09-12T08:10:08.840Z,16.08
2022-09-12T08:15:11.589Z,16.40
2022-09-12T08:20:13.186Z,16.68
2022-09-12T08:25:14.894Z,16.99
2022-09-12T08:30:16.322Z,16.92
2022-09-12T08:35:17.816Z,17.39
2022-09-12T08:40:19.434Z,17.68
2022-09-12T08:45:36.902Z,18.00
2022-09-12T08:50:49.237Z,17.94
2022-09-12T08:55:59.235Z,18.01
2022-09-12T09:01:19.757Z,18.25
2022-09-12T09:06:34.733Z,18.44
2022-09-12T09:12:03.532Z,18.33
2022-09-12T09:17:13.057Z,18.53
2022-09-12T09:22:22.694Z,19.17
2022-09-12T09:27:41.903Z,19.37
2022-09-12T09:32:47.741Z,19.16
2022-09-12T09:38:05.912Z,19.40
2022-09-12T09:43:22.822Z,19.67
2022-09-12T09:48:36.194Z,19.81
2022-09-12T09:53:56.573Z,19.67
2022-09-12T09:59:18.937Z,19.86
2022-09-12T10:04:23.482Z,19.87
2022-09-12T10:09:27.947Z,20.27
2022-09-12T10:14:41.240Z,19.91
2022-09-12T10:19:42.888Z,20.46
2022-09-12T10:24:50.284Z,20.41
2022-09-12T10:30:00.515Z,20.72
2022-09-12T10:35:07.344Z,20.77
2022-09-12T10:40:23.837Z,20.32
2022-09-12T10:45:37.525Z,20.12
2022-09-12T10:50:41.726Z,19.94
2022-09-12T10:56:09.380Z,19.88
2022-09-12T11:01:29.533Z,20.04
2022-09-12T11:06:49.777Z,20.18
2022-09-12T11:12:07.688Z,20.20
2022-09-12T11:17:25.695Z,20.19
2022-09-12T11:22:35.921Z,20.47
2022-09-12T11:27:54.536Z,20.57
2022-09-12T11:33:24.581Z,20.87
2022-09-12T11:38:47.497Z,20.98
2022-09-12T11:44:35.275Z,22.14
2022-09-12T11:49:49.888Z,23.04
2022-09-12T11:55:00.342Z,23.47
2022-09-12T12:00:19.859Z,22.91
2022-09-12T12:05:29.805Z,23.46
2022-09-12T12:10:43.415Z,23.54
2022-09-12T12:16:07.478Z,23.55
2022-09-12T12:21:28.363Z,23.27
2022-09-12T12:26:38.781Z,22.52
2022-09-12T12:31:59.028Z,22.81
2022-09-12T12:37:29.820Z,22.27
2022-09-12T12:42:34.325Z,22.50
2022-09-12T12:47:35.791Z,22.64
2022-09-12T12:52:58.882Z,21.87
2022-09-12T12:58:02.218Z,22.19
2022-09-12T13:03:06.594Z,22.24
2022-09-12T13:08:24.622Z,23.56
2022-09-12T13:13:44.076Z,25.00
2022-09-12T13:18:49.148Z,24.65
2022-09-12T13:24:03.072Z,24.04
2022-09-12T13:29:12.009Z,23.80
2022-09-12T13:34:20.576Z,23.52
2022-09-12T13:39:28.385Z,24.96
2022-09-12T13:44:32.827Z,25.09
2022-09-12T13:49:37.516Z,24.66
2022-09-12T13:54:38.963Z,24.61
2022-09-12T13:59:42.501Z,23.64
2022-09-12T14:05:06.929Z,23.26
2022-09-12T14:10:08.650Z,23.43
2022-09-12T14:15:25.927Z,22.76
2022-09-12T14:20:36.146Z,23.01
2022-09-12T14:25:41.283Z,22.94
2022-09-12T14:31:21.012Z,22.59
2022-09-12T14:36:30.725Z,22.22
2022-09-12T14:41:37.212Z,21.83
2022-09-12T14:46:41.043Z,21.47
2022-09-12T14:51:56.255Z,21.50
2022-09-12T14:56:58.933Z,21.25
2022-09-12T15:02:21.801Z,21.14
2022-09-12T15:07:31.037Z,21.18
2022-09-12T15:12:32.576Z,20.96
2022-09-12T15:17:33.982Z,20.79
2022-09-12T15:22:37.507Z,20.98
2022-09-12T15:27:42.310Z,20.64
2022-09-12T15:32:44.464Z,20.63
2022-09-12T15:37:45.887Z,20.55
2022-09-12T15:42:47.317Z,20.81
2022-09-12T15:47:48.765Z,20.77
2022-09-12T15:52:50.577Z,20.77
2022-09-12T15:57:52.180Z,20.70
2022-09-12T16:02:54.003Z,20.63
2022-09-12T16:07:55.585Z,20.73
2022-09-12T16:12:58.142Z,20.72
2022-09-12T16:17:59.532Z,20.50
2022-09-12T16:23:01.060Z,20.39
2022-09-12T16:28:03.428Z,20.24
2022-09-12T16:33:05.325Z,20.10
2022-09-12T16:38:07.212Z,20.12
2022-09-12T16:43:08.740Z,20.02
2022-09-12T16:48:10.186Z,19.76
2022-09-12T16:53:11.623Z,19.64
2022-09-12T16:58:13.085Z,19.71
2022-09-12T17:03:16.810Z,19.71
2022-09-12T17:08:18.299Z,19.63
2022-09-12T17:13:19.779Z,19.39
2022-09-12T17:18:21.675Z,19.46
2022-09-12T17:23:24.721Z,19.33
2022-09-12T17:28:27.285Z,19.26
2022-09-12T17:33:29.927Z,19.33
2022-09-12T17:38:34.053Z,19.14
2022-09-12T17:43:37.882Z,19.20
2022-09-12T17:48:39.323Z,18.99
2022-09-12T17:53:42.188Z,18.95
2022-09-12T17:58:43.832Z,18.73
2022-09-12T18:03:46.396Z,18.77
2022-09-12T18:08:47.846Z,18.75
2022-09-12T18:13:49.426Z,18.75
2022-09-12T18:18:51.176Z,18.81
2022-09-12T18:23:52.636Z,18.65
2022-09-12T18:28:54.571Z,18.70
2022-09-12T18:33:57.633Z,18.61
2022-09-12T18:38:59.672Z,18.60
2022-09-12T18:44:02.017Z,18.60
2022-09-12T18:49:03.573Z,18.47
2022-09-12T18:54:08.669Z,18.63
2022-09-12T18:59:12.714Z,18.43
2022-09-12T19:04:14.139Z,18.51
2022-09-12T19:09:18.286Z,18.38
2022-09-12T19:14:26.100Z,18.39
2022-09-12T19:19:27.899Z,18.39
2022-09-12T19:24:29.349Z,18.21
2022-09-12T19:29:31.264Z,18.18
2022-09-12T19:34:32.673Z,18.12
2022-09-12T19:39:34.413Z,18.05
2022-09-12T19:44:35.995Z,18.14
2022-09-12T19:49:37.393Z,18.04
2022-09-12T19:54:38.938Z,18.01
2022-09-12T19:59:40.371Z,18.04
2022-09-12T20:04:42.042Z,18.07
2022-09-12T20:09:43.543Z,17.99
2022-09-12T20:14:45.154Z,18.07
2022-09-12T20:19:46.756Z,18.18
2022-09-12T20:24:48.913Z,18.10
2022-09-12T20:29:51.104Z,18.16
2022-09-12T20:34:53.016Z,18.10
2022-09-12T20:39:54.626Z,18.12
2022-09-12T20:44:56.111Z,18.14
2022-09-12T20:49:57.545Z,18.13
2022-09-12T20:54:59.080Z,18.34
2022-09-12T21:00:00.556Z,18.26
2022-09-12T21:05:02.124Z,18.32
2022-09-12T21:10:03.943Z,18.27
2022-09-12T21:15:06.111Z,18.29
2022-09-12T21:20:11.387Z,18.31
2022-09-12T21:25:13.280Z,18.23
2022-09-12T21:30:14.929Z,18.13
2022-09-12T21:35:16.539Z,18.18
2022-09-12T21:40:18.077Z,18.12
2022-09-12T21:45:20.191Z,18.24
2022-09-12T21:50:21.694Z,18.21
2022-09-12T21:55:27.203Z,18.20
2022-09-12T22:00:28.664Z,18.23
2022-09-12T22:05:32.618Z,18.15
2022-09-12T22:10:34.299Z,18.10
2022-09-12T22:15:40.552Z,18.08
2022-09-12T22:20:42.439Z,18.23
2022-09-12T22:25:43.967Z,18.20
2022-09-12T22:30:50.616Z,18.17
2022-09-12T22:35:52.160Z,18.11
2022-09-12T22:40:53.935Z,18.08
2022-09-12T22:45:55.449Z,17.99
2022-09-12T22:50:57.105Z,17.99
2022-09-12T22:55:58.613Z,17.87
2022-09-12T23:01:00.100Z,17.79
2022-09-12T23:06:02.195Z,17.55
2022-09-12T23:11:09.781Z,17.55
2022-09-12T23:16:19.747Z,17.63
2022-09-12T23:21:21.968Z,17.50
2022-09-12T23:26:28.101Z,17.15
2022-09-12T23:31:31.526Z,17.08
2022-09-12T23:36:33.553Z,16.81
2022-09-12T23:41:35.110Z,16.63
2022-09-12T23:46:36.559Z,16.51
2022-09-12T23:51:37.965Z,16.21
2022-09-12T23:56:39.548Z,16.13
